Time;durP1;ratioP1;P1;durP2;ratioP2;P2;SDS_P1;SDS_P2;PMS_P1;PMS_P2;Temp;Humidity;BMP_temperature;BMP_pressure;BME280_temperature;BME280_humidity;BME280_pressure;Samples;Min_cycle;Max_cycle;Signal;HPM_P1;HPM_P2
2022/04/22 00:00:08;;;;;;;30.08;21.92;;;;;;;13.33;67.92;101017.63;5077086;28;20035;-80
2022/04/22 00:02:34;;;;;;;30.08;23.13;;;;;;;13.36;68.25;101027.84;5076656;28;20111;-80
2022/04/22 00:05:00;;;;;;;30.90;22.73;;;;;;;13.29;68.76;101008.31;5093399;28;20020;-81
2022/04/22 00:07:28;;;;;;;32.78;23.10;;;;;;;13.31;69.19;101019.47;5076857;28;20382;-81
2022/04/22 00:09:54;;;;;;;33.45;23.90;;;;;;;13.28;69.52;101021.41;5076861;28;20027;-81
2022/04/22 00:12:19;;;;;;;32.17;23.80;;;;;;;13.24;70.28;101006.88;5076537;28;20098;-81
2022/04/22 00:14:45;;;;;;;33.63;23.48;;;;;;;13.17;70.64;100998.53;5076754;28;20500;-81
2022/04/22 00:17:10;;;;;;;34.17;24.75;;;;;;;13.24;70.94;100999.91;5076468;28;20038;-81
2022/04/22 00:19:36;;;;;;;33.10;24.30;;;;;;;13.28;71.17;100992.81;5076062;28;20024;-81
2022/04/22 00:22:01;;;;;;;32.00;24.42;;;;;;;13.25;71.13;100993.78;5076491;28;20032;-81
2022/04/22 00:24:27;;;;;;;34.85;25.58;;;;;;;13.17;71.10;100989.00;5076474;28;20046;-81
2022/04/22 00:26:52;;;;;;;34.30;24.90;;;;;;;13.17;72.15;100990.75;5076671;28;20046;-81
2022/04/22 00:29:18;;;;;;;31.92;24.83;;;;;;;13.16;72.42;100987.31;5059809;28;20032;-81
2022/04/22 00:31:43;;;;;;;32.30;24.15;;;;;;;13.06;72.51;100972.28;5076670;28;20447;-81
2022/04/22 00:34:09;;;;;;;33.70;24.98;;;;;;;13.10;72.43;100969.47;5092772;28;20028;-81
2022/04/22 00:36:34;;;;;;;32.47;24.52;;;;;;;13.04;72.60;100956.81;5076334;28;20031;-81
2022/04/22 00:39:01;;;;;;;32.67;25.08;;;;;;;13.14;72.58;100964.94;5093109;28;20496;-81
2022/04/22 00:41:27;;;;;;;33.40;25.45;;;;;;;13.11;72.44;100971.16;5076670;28;20035;-80
2022/04/22 00:43:53;;;;;;;36.63;25.50;;;;;;;13.05;73.34;100961.06;5076526;28;20036;-81
2022/04/22 00:46:18;;;;;;;35.75;26.15;;;;;;;13.06;73.49;100959.31;5076069;28;20027;-81
2022/04/22 00:48:44;;;;;;;34.75;26.00;;;;;;;13.10;73.49;100974.66;5075629;28;20063;-81
2022/04/22 00:51:10;;;;;;;35.10;25.90;;;;;;;13.04;73.12;100964.59;5076136;28;20031;-80
2022/04/22 00:53:43;;;;;;;37.17;27.00;;;;;;;13.08;72.81;100966.13;5076211;28;20477;-81
2022/04/22 00:56:11;;;;;;;40.33;27.23;;;;;;;12.89;73.45;100962.84;5092988;28;20034;-81
2022/04/22 00:58:40;;;;;;;40.50;29.13;;;;;;;13.01;73.46;100963.94;5059801;28;20576;-81
2022/04/22 01:01:06;;;;;;;39.88;29.58;;;;;;;12.90;73.72;100961.91;5076198;28;20494;-81
2022/04/22 01:03:32;;;;;;;42.58;30.13;;;;;;;12.82;73.66;100962.31;5075851;28;20111;-81
2022/04/22 01:11:32;;;;;;;42.13;31.70;;;;;;;12.91;73.24;100968.78;5081002;28;20067;-80
2022/04/22 01:14:05;;;;;;;41.30;31.27;;;;;;;12.85;73.72;100956.94;5078210;28;20485;-81
2022/04/22 01:16:30;;;;;;;44.15;31.73;;;;;;;12.88;73.81;100954.19;5096864;28;20038;-81
2022/04/22 01:18:56;;;;;;;43.15;29.83;;;;;;;12.87;74.10;100949.91;5096545;28;20028;-80
2022/04/22 01:21:21;;;;;;;42.47;30.67;;;;;;;12.78;73.98;100927.06;5063086;28;20496;-81
2022/04/22 01:23:47;;;;;;;45.13;30.67;;;;;;;12.64;75.15;100867.22;5079560;28;20112;-81
2022/04/22 01:26:13;;;;;;;41.00;29.00;;;;;;;12.47;74.80;100812.78;5096437;28;20035;-80
2022/04/22 01:28:38;;;;;;;39.50;28.08;;;;;;;12.43;74.37;100863.19;5079488;28;20030;-81
2022/04/22 01:31:04;;;;;;;39.45;27.92;;;;;;;12.38;74.14;100870.34;5079313;28;20118;-80
2022/04/22 01:33:30;;;;;;;41.20;26.63;;;;;;;12.42;74.56;100895.25;5096279;28;20030;-80
2022/04/22 01:35:55;;;;;;;37.47;26.20;;;;;;;12.38;74.95;100906.69;5096485;28;20579;-81
2022/04/22 01:38:21;;;;;;;38.45;27.05;;;;;;;12.31;75.22;100917.41;5096494;28;20024;-80
2022/04/22 01:40:46;;;;;;;38.05;27.88;;;;;;;12.38;75.32;100912.72;5079377;28;20137;-81
2022/04/22 01:43:12;;;;;;;42.13;27.75;;;;;;;12.38;75.22;100911.88;5079405;28;20030;-81
2022/04/22 01:45:37;;;;;;;40.63;28.15;;;;;;;12.39;75.84;100897.97;5078924;28;20428;-80
2022/04/22 01:48:03;;;;;;;42.72;28.77;;;;;;;12.41;76.30;100885.78;5079398;28;20019;-81
2022/04/22 01:50:29;;;;;;;41.35;28.73;;;;;;;12.37;76.10;100866.09;5096038;28;20036;-80
2022/04/22 01:52:54;;;;;;;39.22;27.63;;;;;;;12.37;76.26;100863.50;5079309;28;20039;-80
2022/04/22 01:55:20;;;;;;;43.58;27.45;;;;;;;12.39;76.22;100872.91;5096034;28;20059;-80
2022/04/22 01:57:46;;;;;;;37.25;26.00;;;;;;;12.38;76.07;100884.16;5079189;28;20034;-80
2022/04/22 02:00:12;;;;;;;38.65;25.45;;;;;;;12.23;76.43;100872.84;5079109;28;20460;-81
2022/04/22 02:02:38;;;;;;;33.88;24.48;;;;;;;12.34;76.29;100901.66;5079305;28;20028;-80
2022/04/22 02:07:49;;;;;;;37.10;25.73;;;;;;;12.02;77.22;100892.94;5685414;22;20202;31
2022/04/22 02:10:14;;;;;;;38.97;25.73;;;;;;;12.08;77.90;100912.53;5048305;22;20444;-82
2022/04/22 02:12:40;;;;;;;37.72;26.00;;;;;;;12.21;77.27;100910.16;5019107;28;20485;-83
2022/04/22 02:15:06;;;;;;;36.75;25.90;;;;;;;12.25;77.35;100902.13;5018903;28;20559;-83
2022/04/22 02:17:31;;;;;;;38.33;27.63;;;;;;;12.19;77.12;100891.22;5018893;28;20033;-82
2022/04/22 02:19:57;;;;;;;44.72;28.58;;;;;;;12.14;77.06;100906.19;5035677;28;20056;-83
2022/04/22 02:22:23;;;;;;;41.60;27.90;;;;;;;11.86;77.29;100849.72;5034965;28;20033;-82
2022/04/22 02:24:49;;;;;;;39.20;26.63;;;;;;;12.22;77.08;100899.72;5034953;28;20033;-83
2022/04/22 02:29:58;;;;;;;38.53;26.85;;;;;;;12.08;76.51;100886.59;5023701;28;20044;-82
2022/04/22 02:32:23;;;;;;;40.65;27.92;;;;;;;12.12;77.10;100900.25;5018610;28;20021;-82
2022/04/22 02:34:49;;;;;;;38.70;27.45;;;;;;;12.21;76.80;100904.97;5035064;28;20159;-82
2022/04/22 02:37:15;;;;;;;39.72;26.20;;;;;;;12.25;76.40;100903.88;5001940;28;20025;-83
2022/04/22 02:39:40;;;;;;;38.22;26.33;;;;;;;12.13;76.72;100891.56;5018790;28;20040;-82
2022/04/22 02:45:50;;;;;;;40.75;28.10;;;;;;;12.25;76.56;100890.91;5023394;28;20039;-83
2022/04/22 02:47:45;;;;;;;40.92;27.45;;;;;;;12.29;76.50;100893.28;5021761;28;20041;-83
2022/04/22 02:50:10;;;;;;;41.50;27.75;;;;;;;12.11;76.49;100868.31;5002092;28;20036;-82
2022/04/22 02:52:36;;;;;;;41.15;27.65;;;;;;;12.28;76.76;100894.19;5018071;28;20033;-82
2022/04/22 02:55:02;;;;;;;43.65;28.95;;;;;;;12.20;77.05;100893.75;5002100;28;20040;-83
2022/04/22 02:57:27;;;;;;;39.70;29.15;;;;;;;12.19;76.69;100905.06;5034852;28;20036;-82
2022/04/22 02:59:53;;;;;;;41.47;28.95;;;;;;;12.24;76.33;100904.81;5034714;28;20033;-82
2022/04/22 03:02:19;;;;;;;41.78;28.25;;;;;;;12.09;76.61;100901.22;5018341;28;20056;-82
2022/04/22 03:04:44;;;;;;;43.38;30.13;;;;;;;12.20;76.21;100906.75;5018059;28;20511;-82
2022/04/22 03:07:10;;;;;;;44.33;29.25;;;;;;;12.17;76.50;100893.91;5017671;28;20029;-82
2022/04/22 03:09:36;;;;;;;41.03;29.30;;;;;;;12.20;76.98;100893.75;5017700;28;20060;-82
2022/04/22 03:12:01;;;;;;;42.05;28.10;;;;;;;12.15;76.65;100880.19;5034272;28;20021;-83
2022/04/22 03:14:29;;;;;;;40.38;27.63;;;;;;;12.26;76.60;100892.59;5034626;28;20040;-82
2022/04/22 03:16:54;;;;;;;40.50;28.63;;;;;;;12.24;76.91;100897.88;5034619;28;20021;-82
2022/04/22 03:19:20;;;;;;;40.83;28.45;;;;;;;12.01;76.95;100878.31;5017739;28;20107;-83
2022/04/22 03:21:45;;;;;;;45.58;31.02;;;;;;;12.18;76.55;100905.94;5033809;28;20113;-82
2022/04/22 03:24:11;;;;;;;44.53;31.88;;;;;;;12.12;76.71;100900.25;5018031;28;20094;-82
2022/04/22 03:26:37;;;;;;;48.88;32.47;;;;;;;12.19;77.22;100906.78;5034196;28;20048;-82
2022/04/22 03:29:02;;;;;;;44.47;32.05;;;;;;;12.15;77.44;100903.53;5017538;28;20065;-82
2022/04/22 03:31:28;;;;;;;45.38;31.38;;;;;;;12.09;77.48;100892.59;5001265;28;20028;-82
2022/04/22 03:33:53;;;;;;;43.10;30.55;;;;;;;12.19;77.82;100886.03;5017447;28;20039;-82
2022/04/22 03:36:19;;;;;;;46.25;32.58;;;;;;;12.09;77.90;100859.75;5016882;28;20083;-82
2022/04/22 03:38:44;;;;;;;44.10;30.90;;;;;;;12.17;77.62;100877.50;5017302;28;20029;-83
2022/04/22 03:41:10;;;;;;;45.58;30.83;;;;;;;12.22;77.61;100886.75;5017371;28;20468;-82
2022/04/22 03:43:35;;;;;;;46.72;32.45;;;;;;;12.07;77.33;100895.28;5017166;28;20032;-83
2022/04/22 03:46:01;;;;;;;48.00;33.45;;;;;;;12.09;77.54;100910.75;5017251;28;20044;-82
2022/04/22 03:48:27;;;;;;;47.20;32.13;;;;;;;12.10;77.73;100923.69;5017336;28;20033;-83
2022/04/22 03:50:53;;;;;;;47.67;32.83;;;;;;;12.10;77.42;100926.28;5016937;28;20036;-83
2022/04/22 03:53:18;;;;;;;47.00;33.35;;;;;;;12.08;77.37;100920.31;5017084;28;20123;-82
2022/04/22 03:55:44;;;;;;;47.95;33.47;;;;;;;12.01;77.47;100918.97;5033599;28;20032;-82
2022/04/22 03:58:13;;;;;;;47.55;33.08;;;;;;;12.08;77.76;100930.69;5017463;28;20152;-83
2022/04/22 04:00:43;;;;;;;47.00;32.97;;;;;;;12.02;77.84;100924.06;5018022;28;20082;-82
2022/04/22 04:03:27;;;;;;;45.13;32.42;;;;;;;12.04;77.94;100927.41;5016641;28;20033;-83
2022/04/22 04:05:52;;;;;;;48.83;31.75;;;;;;;12.17;77.60;100925.03;5033290;28;20056;-83
2022/04/22 04:08:19;;;;;;;44.85;30.98;;;;;;;12.15;77.44;100913.91;5033362;28;20071;-83
2022/04/22 04:16:13;;;;;;;40.58;28.60;;;;;;;11.95;77.50;100876.00;5021740;28;20080;-82
2022/04/22 04:18:39;;;;;;;49.40;30.48;;;;;;;11.99;78.45;100871.50;5016488;28;20461;-83
2022/04/22 04:23:50;;;;;;;39.92;26.80;;;;;;;11.77;77.53;100880.31;5021792;28;20031;-82
2022/04/22 04:26:16;;;;;;;42.65;28.15;;;;;;;11.64;77.82;100889.63;5016818;28;20108;-83
2022/04/22 04:28:42;;;;;;;43.65;29.58;;;;;;;11.63;78.38;100887.13;5033380;28;20464;-83
2022/04/22 04:31:08;;;;;;;43.05;28.30;;;;;;;11.75;77.98;100876.97;5016891;28;20035;-82
2022/04/22 04:33:35;;;;;;;45.30;29.42;;;;;;;11.66;78.50;100877.44;5015935;28;20025;-82
2022/04/22 04:36:01;;;;;;;41.40;27.45;;;;;;;11.72;78.11;100891.84;5016548;28;20033;-82
2022/04/22 04:38:27;;;;;;;43.15;28.13;;;;;;;11.80;78.25;100873.34;5033065;28;20029;-82
2022/04/22 04:40:53;;;;;;;40.05;28.05;;;;;;;11.80;78.49;100874.22;5016619;28;20044;-82
2022/04/22 04:43:20;;;;;;;38.47;26.10;;;;;;;11.75;78.07;100864.03;5016575;28;20033;-82
2022/04/22 04:45:46;;;;;;;43.00;27.50;;;;;;;11.82;77.70;100867.19;5016646;28;20505;-82
2022/04/22 04:48:11;;;;;;;43.60;27.50;;;;;;;11.81;77.38;100844.78;5015482;28;20041;-83
2022/04/22 04:50:39;;;;;;;42.80;27.35;;;;;;;11.67;77.87;100840.22;5016249;28;20399;-83
2022/04/22 04:53:04;;;;;;;40.22;26.52;;;;;;;11.63;77.89;100845.66;5016581;28;20029;-82
2022/04/22 04:55:30;;;;;;;44.65;27.85;;;;;;;11.52;77.97;100846.19;5032414;28;20055;-82
2022/04/22 04:57:55;;;;;;;43.60;27.55;;;;;;;11.50;77.95;100835.03;5016477;28;20505;-82
2022/04/22 05:00:21;;;;;;;44.33;27.63;;;;;;;11.70;77.91;100845.28;5016219;28;20037;-82
2022/04/22 05:02:46;;;;;;;52.33;31.73;;;;;;;11.59;77.44;100836.34;5016035;28;20025;-83
2022/04/22 05:05:12;;;;;;;49.10;29.92;;;;;;;11.56;77.49;100845.13;5016042;28;20421;-82
2022/04/22 05:07:57;;;;;;;42.83;26.83;;;;;;;11.53;77.31;100850.47;5016140;28;20456;-82
2022/04/22 05:10:30;;;;;;;42.53;27.80;;;;;;;11.55;78.17;100863.31;5032349;28;20041;-82
2022/04/22 05:12:56;;;;;;;35.70;24.55;;;;;;;11.58;77.36;100873.53;5016138;28;20037;-82
2022/04/22 05:15:22;;;;;;;37.10;23.92;;;;;;;11.43;77.48;100834.53;5015821;28;20043;-82
2022/04/22 05:17:48;;;;;;;36.15;24.38;;;;;;;11.61;77.84;100845.75;5015863;28;20482;-82
2022/04/22 05:20:15;;;;;;;38.88;25.05;;;;;;;11.67;77.36;100837.63;5016153;28;20032;-82
2022/04/22 05:22:41;;;;;;;40.13;26.42;;;;;;;11.56;77.63;100824.38;5016187;28;20127;-83
2022/04/22 05:25:07;;;;;;;42.65;26.27;;;;;;;11.77;77.12;100823.31;5016121;28;20485;-82
2022/04/22 05:27:33;;;;;;;46.53;27.67;;;;;;;11.71;77.82;100822.78;5016091;28;20025;-82
2022/04/22 05:32:47;;;;;;;50.42;29.80;;;;;;;11.52;77.54;100783.19;5021012;28;20083;-82
2022/04/22 05:35:14;;;;;;;44.83;27.75;;;;;;;11.69;77.05;100817.66;5032797;28;20482;-82
2022/04/22 05:37:52;;;;;;;43.72;27.63;;;;;;;11.69;77.30;100824.59;5015901;28;20044;-83
2022/04/22 05:40:20;;;;;;;41.97;27.25;;;;;;;11.67;76.97;100824.69;5049807;28;20021;-82
2022/04/22 05:42:46;;;;;;;39.78;26.48;;;;;;;11.57;77.64;100814.84;5016256;28;20033;-82
2022/04/22 05:45:12;;;;;;;40.25;25.33;;;;;;;11.64;77.32;100829.19;5015684;28;20090;-82
2022/04/22 05:47:38;;;;;;;35.05;25.25;;;;;;;11.54;77.56;100810.66;4999432;28;20057;-83
2022/04/22 05:50:04;;;;;;;36.33;24.30;;;;;;;11.49;76.97;100812.63;5032366;28;20110;-83
2022/04/22 05:52:31;;;;;;;36.22;24.92;;;;;;;11.59;77.48;100842.38;5015909;28;20029;-82
2022/04/22 05:54:57;;;;;;;36.42;24.17;;;;;;;11.67;77.00;100831.63;5015534;28;20055;-82
2022/04/22 05:57:23;;;;;;;35.70;24.13;;;;;;;11.66;77.15;100824.75;5032319;28;20424;-82
2022/04/22 05:59:49;;;;;;;35.95;24.48;;;;;;;11.65;77.10;100803.19;5015965;28;20025;-82
2022/04/22 06:02:17;;;;;;;34.88;24.40;;;;;;;11.59;77.02;100808.69;5019482;28;20028;-82
2022/04/22 06:04:43;;;;;;;34.75;25.50;;;;;;;11.65;77.50;100815.31;5019501;28;20409;-82
2022/04/22 06:07:08;;;;;;;34.38;22.67;;;;;;;11.67;76.92;100800.53;5019291;28;20017;-82
2022/04/22 06:12:18;;;;;;;32.53;21.30;;;;;;;11.84;76.15;100820.44;5038011;28;20106;-82
2022/04/22 06:14:46;;;;;;;34.58;23.05;;;;;;;11.84;76.51;100794.53;5018621;28;20489;-83
2022/04/22 06:17:12;;;;;;;32.80;22.33;;;;;;;11.68;76.92;100782.31;5035731;28;20025;-82
2022/04/22 06:19:38;;;;;;;31.10;21.98;;;;;;;11.65;77.10;100785.06;5018901;28;20398;-83
2022/04/22 06:22:04;;;;;;;30.52;21.02;;;;;;;11.77;76.11;100810.34;5018708;28;20025;-82
2022/04/22 06:24:29;;;;;;;28.65;20.42;;;;;;;11.73;75.63;100797.63;5035211;28;20478;-83
2022/04/22 06:26:55;;;;;;;28.77;20.50;;;;;;;11.75;76.00;100780.25;5018769;28;20417;-82
2022/04/22 06:29:21;;;;;;;28.27;19.27;;;;;;;11.68;75.50;100782.31;5018532;28;20028;-82
2022/04/22 06:31:47;;;;;;;27.88;20.88;;;;;;;11.66;76.14;100786.72;5018743;28;20043;-83
2022/04/22 06:34:13;;;;;;;29.40;19.58;;;;;;;11.63;75.68;100778.28;5018588;28;20477;-83
2022/04/22 06:36:38;;;;;;;28.30;19.33;;;;;;;11.63;74.99;100776.53;5035132;28;20021;-83
2022/04/22 06:39:04;;;;;;;29.92;20.63;;;;;;;11.62;75.15;100772.25;5018631;28;20127;-83
2022/04/22 06:46:59;;;;;;;28.00;20.33;;;;;;;11.72;74.33;100776.06;5023463;28;20048;-82
2022/04/22 06:49:25;;;;;;;29.65;20.00;;;;;;;11.75;73.79;100796.63;5018364;28;20477;-83
2022/04/22 06:51:51;;;;;;;28.98;19.45;;;;;;;11.76;73.38;100784.50;5018494;28;20048;-83
2022/04/22 06:54:16;;;;;;;26.45;19.45;;;;;;;11.86;73.48;100788.34;5018279;28;20025;-82
2022/04/22 06:56:44;;;;;;;25.73;19.50;;;;;;;11.73;73.27;100749.22;5018302;28;20098;-83
2022/04/22 06:59:09;;;;;;;25.98;18.30;;;;;;;12.09;72.87;100786.28;5018000;28;20054;-83
2022/04/22 07:01:36;;;;;;;24.50;17.60;;;;;;;12.16;72.30;100778.09;5017722;28;20111;-83
2022/04/22 07:04:02;;;;;;;25.27;17.48;;;;;;;12.26;71.89;100792.25;5018469;28;20036;-83
2022/04/22 07:06:27;;;;;;;21.90;16.90;;;;;;;12.23;71.76;100782.06;5034373;28;20029;-82
2022/04/22 07:08:54;;;;;;;22.90;16.90;;;;;;;12.46;70.87;100805.94;5018011;28;20061;-82
2022/04/22 07:11:28;;;;;;;23.17;17.05;;;;;;;12.63;70.72;100811.06;5017477;28;20087;-82
2022/04/22 07:13:56;;;;;;;21.70;15.60;;;;;;;12.69;69.91;100808.13;5017376;28;20489;-83
2022/04/22 07:16:21;;;;;;;23.25;16.55;;;;;;;12.87;70.80;100816.66;5018027;28;20029;-82
2022/04/22 07:18:47;;;;;;;25.17;18.33;;;;;;;12.89;71.52;100794.88;5017787;28;20051;-82
2022/04/22 07:21:13;;;;;;;23.52;17.50;;;;;;;13.08;69.79;100793.88;5017695;28;20086;-82
2022/04/22 07:23:39;;;;;;;26.65;18.33;;;;;;;13.07;70.13;100792.16;5034181;28;20021;-83
2022/04/22 07:26:09;;;;;;;27.17;18.15;;;;;;;13.33;69.66;100809.75;5033681;28;20029;-82
2022/04/22 07:28:34;;;;;;;22.75;16.33;;;;;;;13.30;68.12;100815.13;5018464;28;20102;-82
2022/04/22 07:31:00;;;;;;;23.90;17.45;;;;;;;13.39;68.90;100803.38;5017686;28;20529;-82
2022/04/22 07:33:26;;;;;;;25.15;19.48;;;;;;;13.59;69.02;100792.66;5017814;28;20041;-83
2022/04/22 07:35:52;;;;;;;22.05;15.88;;;;;;;13.67;67.16;100777.44;5017082;28;20029;-82
2022/04/22 07:38:18;;;;;;;22.98;16.98;;;;;;;13.90;68.91;100778.66;5017413;28;20051;-83
2022/04/22 07:40:48;;;;;;;22.27;15.90;;;;;;;14.04;67.16;100785.59;5017364;28;20027;-82
2022/04/22 07:48:42;;;;;;;24.52;16.98;;;;;;;14.33;67.63;100776.00;5022350;28;20040;-82
2022/04/22 07:51:07;;;;;;;23.85;16.67;;;;;;;14.57;66.69;100799.72;5034087;28;20025;-82
2022/04/22 07:53:34;;;;;;;21.02;15.48;;;;;;;14.56;65.88;100798.91;5033609;28;20029;-83
2022/04/22 07:55:59;;;;;;;19.90;14.73;;;;;;;14.75;65.51;100815.94;5033404;28;20033;-82
2022/04/22 07:58:25;;;;;;;19.40;15.13;;;;;;;14.72;64.62;100784.88;5017389;28;20028;-82
2022/04/22 08:00:51;;;;;;;19.67;14.80;;;;;;;14.85;63.42;100794.44;5033334;28;20054;-83
2022/04/22 08:03:17;;;;;;;20.70;15.05;;;;;;;14.71;63.72;100791.03;5017085;28;20020;-82
2022/04/22 08:05:42;;;;;;;20.98;15.00;;;;;;;14.66;64.74;100767.06;5016909;28;20024;-82
2022/04/22 08:08:08;;;;;;;18.00;13.60;;;;;;;14.87;64.36;100771.75;5016760;28;20029;-82
2022/04/22 08:10:34;;;;;;;19.80;14.65;;;;;;;14.96;63.85;100762.50;5016381;28;20045;-82
2022/04/22 08:13:00;;;;;;;21.80;13.95;;;;;;;15.13;64.02;100738.75;5033170;28;20033;-82
2022/04/22 08:15:25;;;;;;;16.83;12.73;;;;;;;15.16;63.04;100746.38;5000204;28;20102;-82
2022/04/22 08:17:51;;;;;;;19.77;13.20;;;;;;;15.36;63.18;100746.84;5016626;28;20175;-82
2022/04/22 08:20:16;;;;;;;16.40;11.93;;;;;;;15.43;62.58;100750.69;5000216;28;20024;-84
2022/04/22 08:22:45;;;;;;;16.73;11.88;;;;;;;15.51;63.09;100740.56;5016607;28;20387;-81
2022/04/22 08:25:12;;;;;;;15.93;12.68;;;;;;;15.31;62.16;100715.03;5017233;28;20028;-82
2022/04/22 08:27:37;;;;;;;16.35;12.55;;;;;;;15.24;61.94;100706.78;5016837;28;20039;-81
2022/04/22 08:30:03;;;;;;;16.40;12.05;;;;;;;15.60;62.59;100770.41;5050754;28;20032;-81
2022/04/22 08:32:29;;;;;;;17.83;12.13;;;;;;;15.66;61.58;100743.97;5016792;28;20031;-81
2022/04/22 08:34:54;;;;;;;15.60;11.40;;;;;;;15.74;61.61;100752.94;5016484;28;20410;-83
2022/04/22 08:37:20;;;;;;;15.98;11.38;;;;;;;15.70;61.99;100741.03;5016548;28;20029;-82
2022/04/22 08:39:45;;;;;;;15.80;11.85;;;;;;;15.89;61.70;100748.44;5015845;28;20036;-84
2022/04/22 08:42:14;;;;;;;17.80;11.45;;;;;;;16.09;61.86;100754.88;5016027;28;20021;-85
2022/04/22 08:44:40;;;;;;;16.70;11.50;;;;;;;16.20;62.13;100730.63;4999834;28;20505;-86
2022/04/22 08:49:58;;;;;;;14.82;10.18;;;;;;;16.34;61.33;100741.78;5035050;28;20040;-84
2022/04/22 08:52:28;;;;;;;16.50;10.88;;;;;;;16.47;60.95;100735.66;5017429;28;20033;-83
2022/04/22 08:54:54;;;;;;;15.20;10.57;;;;;;;16.49;60.83;100718.09;5032267;28;20037;-83
2022/04/22 08:57:20;;;;;;;14.45;10.63;;;;;;;16.53;60.98;100724.78;5016454;28;20112;-82
2022/04/22 08:59:46;;;;;;;18.15;11.57;;;;;;;16.70;61.52;100715.75;5016110;28;20432;-83
2022/04/22 09:02:16;;;;;;;22.38;11.57;;;;;;;16.98;61.54;100711.94;4999774;28;20029;-83
2022/04/22 09:04:42;;;;;;;16.52;10.90;;;;;;;17.10;59.82;100682.25;5016494;28;20025;-83
2022/04/22 09:07:10;;;;;;;15.45;11.30;;;;;;;17.17;59.49;100699.16;4999609;28;20048;-83
2022/04/22 09:09:36;;;;;;;13.40;10.40;;;;;;;17.15;59.08;100703.69;5016364;28;20136;-83
2022/04/22 09:12:12;;;;;;;19.65;10.95;;;;;;;17.13;59.80;100687.28;5016041;28;20025;-83
2022/04/22 09:14:49;;;;;;;13.75;10.77;;;;;;;17.27;59.69;100684.44;5016127;28;20036;-83
2022/04/22 09:17:16;;;;;;;14.48;11.05;;;;;;;17.33;59.28;100684.00;5016391;28;20075;-83
2022/04/22 09:19:44;;;;;;;18.63;11.23;;;;;;;17.40;59.39;100661.66;5016083;28;20029;-83
2022/04/22 09:22:10;;;;;;;14.15;10.65;;;;;;;17.58;59.16;100674.25;5016170;28;20031;-83
2022/04/22 09:24:49;;;;;;;16.80;10.77;;;;;;;17.85;58.62;100679.16;5015983;28;20107;-84
2022/04/22 09:27:14;;;;;;;15.43;10.43;;;;;;;17.82;58.32;100684.63;4999912;28;20120;-84
2022/04/22 09:29:43;;;;;;;16.10;10.65;;;;;;;17.89;57.78;100676.16;5015986;28;20108;-84
2022/04/22 09:32:10;;;;;;;15.75;10.48;;;;;;;17.93;58.05;100677.59;5016273;28;20426;-83
2022/04/22 09:34:39;;;;;;;16.92;10.98;;;;;;;17.87;58.46;100667.59;5016016;28;20021;-83
2022/04/22 09:42:53;;;;;;;15.80;10.30;;;;;;;18.12;57.24;100660.44;5038860;28;20043;-83
2022/04/22 09:45:18;;;;;;;17.90;10.95;;;;;;;18.19;58.22;100658.97;5003087;28;20120;-83
2022/04/22 09:47:44;;;;;;;18.17;10.50;;;;;;;18.25;57.21;100666.34;5036156;28;20025;-83
2022/04/22 09:50:11;;;;;;;14.07;9.85;;;;;;;18.28;57.33;100650.38;5019211;28;20061;-83
2022/04/22 09:52:39;;;;;;;14.45;9.88;;;;;;;18.23;57.47;100650.78;5035324;28;20021;-83
2022/04/22 09:55:08;;;;;;;18.02;10.18;;;;;;;18.29;57.42;100657.31;5019728;28;20108;-83
2022/04/22 09:57:53;;;;;;;15.35;9.90;;;;;;;18.42;57.02;100657.97;5019029;28;20452;-83
2022/04/22 10:00:23;;;;;;;16.42;9.57;;;;;;;18.43;57.11;100670.09;5019661;28;20029;-83
2022/04/22 10:02:53;;;;;;;16.58;9.80;;;;;;;18.49;56.92;100663.56;5019342;28;20021;-83
2022/04/22 10:05:19;;;;;;;13.55;10.40;;;;;;;18.46;57.35;100667.22;5020359;28;20029;-83
2022/04/22 10:07:45;;;;;;;16.67;9.88;;;;;;;18.25;57.21;100645.41;5018761;28;20045;-83
2022/04/22 10:10:11;;;;;;;14.38;9.82;;;;;;;18.35;57.50;100662.03;5019208;28;20080;-83
2022/04/22 10:12:36;;;;;;;17.02;9.60;;;;;;;18.14;57.39;100622.72;5019529;28;20107;-84
2022/04/22 10:15:02;;;;;;;12.50;9.25;;;;;;;18.35;57.51;100656.78;5002548;28;20476;-83
2022/04/22 10:17:27;;;;;;;20.70;10.70;;;;;;;18.02;57.66;100616.69;5002593;28;20108;-84
2022/04/22 10:19:53;;;;;;;14.30;9.82;;;;;;;18.12;57.93;100657.81;5035074;28;20489;-84
2022/04/22 10:22:18;;;;;;;16.80;9.75;;;;;;;18.13;58.32;100639.38;5018560;28;20039;-84
2022/04/22 10:24:44;;;;;;;15.52;10.10;;;;;;;18.11;58.63;100632.59;5018337;28;20032;-83
2022/04/22 10:27:10;;;;;;;16.63;10.48;;;;;;;18.13;58.71;100635.94;5018838;28;20028;-84
2022/04/22 10:29:36;;;;;;;15.65;9.32;;;;;;;18.10;58.72;100625.72;5019065;28;20029;-83
2022/04/22 10:32:05;;;;;;;18.90;11.30;;;;;;;18.02;59.02;100619.28;5018304;28;20029;-84
2022/04/22 10:34:43;;;;;;;13.70;10.30;;;;;;;18.01;59.06;100616.81;5034706;28;20036;-84
2022/04/22 10:37:19;;;;;;;14.75;10.68;;;;;;;18.14;58.84;100603.56;5035111;28;20083;-83
2022/04/22 10:39:51;;;;;;;17.58;10.30;;;;;;;18.20;59.03;100587.34;5002083;28;20029;-83
2022/04/22 10:42:16;;;;;;;15.05;9.90;;;;;;;18.61;58.02;100594.44;5019187;28;20068;-82
2022/04/22 10:47:47;;;;;;;15.77;9.68;;;;;;;18.64;57.46;100596.78;5022636;28;20035;-83
2022/04/22 10:50:30;;;;;;;16.33;11.00;;;;;;;18.62;57.68;100599.53;5018062;28;20028;-83
2022/04/22 10:53:01;;;;;;;14.38;9.13;;;;;;;18.43;57.40;100599.38;5036041;28;20505;-84
2022/04/22 10:55:27;;;;;;;18.77;9.65;;;;;;;18.27;58.04;100591.13;5052144;28;20115;-83
2022/04/22 10:58:13;;;;;;;15.25;9.73;;;;;;;18.40;57.73;100607.50;5018301;28;20072;-82
2022/04/22 11:00:41;;;;;;;18.35;9.88;;;;;;;18.26;58.04;100589.47;5051944;28;20029;-83
2022/04/22 11:03:13;;;;;;;14.77;10.55;;;;;;;18.18;58.53;100599.72;5002016;28;20075;-83
2022/04/22 11:05:43;;;;;;;16.05;9.95;;;;;;;18.11;58.71;100581.06;5034375;28;20048;-83
2022/04/22 11:08:19;;;;;;;16.52;10.00;;;;;;;18.10;58.91;100573.34;5018166;28;20116;-83
2022/04/22 11:10:48;;;;;;;15.50;9.98;;;;;;;18.16;58.74;100588.53;5018889;28;20041;-83
2022/04/22 11:13:33;;;;;;;15.98;9.45;;;;;;;18.26;58.29;100571.13;5034305;28;20119;-84
2022/04/22 11:16:11;;;;;;;16.52;9.70;;;;;;;18.33;58.79;100572.28;5052163;28;20029;-83
2022/04/22 11:18:43;;;;;;;18.25;9.18;;;;;;;18.44;58.57;100555.69;5033874;28;20509;-83
2022/04/22 11:21:18;;;;;;;14.00;9.50;;;;;;;18.48;57.76;100567.56;5017965;28;20119;-83
2022/04/22 11:23:44;;;;;;;15.20;8.98;;;;;;;18.71;57.65;100557.84;5052028;28;20036;-83
2022/04/22 11:26:14;;;;;;;14.43;9.30;;;;;;;18.71;57.57;100537.69;5017630;28;20033;-82
2022/04/22 11:28:41;;;;;;;14.90;8.82;;;;;;;19.09;56.96;100550.19;5017544;28;20128;-83
2022/04/22 11:31:11;;;;;;;14.55;9.00;;;;;;;19.09;57.41;100538.84;5001137;28;20033;-82
2022/04/22 11:33:55;;;;;;;12.27;8.18;;;;;;;19.08;56.80;100540.66;5000957;28;20048;-82
2022/04/22 11:36:24;;;;;;;13.52;8.10;;;;;;;19.11;56.56;100522.03;5017525;28;20024;-82
2022/04/22 11:38:51;;;;;;;11.45;6.85;;;;;;;18.90;55.90;100505.53;5017858;28;20033;-82
2022/04/22 11:41:17;;;;;;;11.20;7.60;;;;;;;19.06;55.82;100529.44;5034060;28;20028;-82
2022/04/22 11:43:43;;;;;;;16.70;7.60;;;;;;;19.12;56.18;100515.81;5033862;28;20037;-82
2022/04/22 11:46:12;;;;;;;16.05;6.13;;;;;;;19.47;55.24;100519.78;5017531;28;20024;-82
2022/04/22 11:48:50;;;;;;;11.50;6.10;;;;;;;19.70;54.04;100509.91;5017143;28;20094;-82
2022/04/22 11:51:16;;;;;;;9.23;5.90;;;;;;;19.91;54.18;100501.91;5017685;28;20031;-81
2022/04/22 11:53:49;;;;;;;13.75;7.10;;;;;;;19.95;53.77;100498.03;5017222;28;20033;-82
2022/04/22 11:56:21;;;;;;;13.88;6.78;;;;;;;20.12;53.35;100486.84;5017270;28;20488;-82
2022/04/22 11:58:56;;;;;;;13.73;6.10;;;;;;;20.09;52.50;100462.66;5017268;28;20036;-82